sensor_id;sensor_type;location;lat;lon;timestamp;P1;durP1;ratioP1;P2;durP2;ratioP2
4806;SDS011;2417;52.482;13.432;2022-11-25T00:01:32;100.90;;;41.97;;
4806;SDS011;2417;52.482;13.432;2022-11-25T00:04:04;117.37;;;53.40;;
4806;SDS011;2417;52.482;13.432;2022-11-25T00:06:38;116.87;;;51.13;;
4806;SDS011;2417;52.482;13.432;2022-11-25T00:09:08;270.70;;;123.27;;
4806;SDS011;2417;52.482;13.432;2022-11-25T00:11:39;116.27;;;50.17;;
4806;SDS011;2417;52.482;13.432;2022-11-25T00:14:13;132.73;;;52.33;;
4806;SDS011;2417;52.482;13.432;2022-11-25T00:16:41;109.97;;;45.30;;
4806;SDS011;2417;52.482;13.432;2022-11-25T00:19:15;108.50;;;46.77;;
4806;SDS011;2417;52.482;13.432;2022-11-25T00:21:50;186.17;;;83.80;;
4806;SDS011;2417;52.482;13.432;2022-11-25T00:24:19;173.77;;;68.47;;
4806;SDS011;2417;52.482;13.432;2022-11-25T00:26:48;123.37;;;46.97;;
4806;SDS011;2417;52.482;13.432;2022-11-25T00:29:20;126.53;;;49.47;;
4806;SDS011;2417;52.482;13.432;2022-11-25T00:31:54;108.87;;;43.80;;
4806;SDS011;2417;52.482;13.432;2022-11-25T00:34:26;114.10;;;42.40;;
4806;SDS011;2417;52.482;13.432;2022-11-25T00:36:57;110.07;;;39.77;;
4806;SDS011;2417;52.482;13.432;2022-11-25T00:39:27;102.87;;;38.77;;
4806;SDS011;2417;52.482;13.432;2022-11-25T00:41:59;102.10;;;41.30;;
4806;SDS011;2417;52.482;13.432;2022-11-25T00:44:45;112.97;;;44.10;;
4806;SDS011;2417;52.482;13.432;2022-11-25T00:47:18;227.10;;;96.50;;
4806;SDS011;2417;52.482;13.432;2022-11-25T00:49:50;122.53;;;49.03;;
4806;SDS011;2417;52.482;13.432;2022-11-25T00:52:21;138.30;;;52.10;;
4806;SDS011;2417;52.482;13.432;2022-11-25T00:54:49;109.60;;;45.70;;
4806;SDS011;2417;52.482;13.432;2022-11-25T00:57:18;117.87;;;50.53;;
4806;SDS011;2417;52.482;13.432;2022-11-25T00:59:46;136.53;;;57.37;;
4806;SDS011;2417;52.482;13.432;2022-11-25T01:02:14;109.33;;;44.23;;
4806;SDS011;2417;52.482;13.432;2022-11-25T01:04:43;114.63;;;44.67;;
4806;SDS011;2417;52.482;13.432;2022-11-25T01:07:13;99.97;;;41.40;;
4806;SDS011;2417;52.482;13.432;2022-11-25T01:09:43;150.73;;;64.87;;
4806;SDS011;2417;52.482;13.432;2022-11-25T01:12:11;305.70;;;138.03;;
4806;SDS011;2417;52.482;13.432;2022-11-25T01:14:39;117.63;;;48.80;;
4806;SDS011;2417;52.482;13.432;2022-11-25T01:17:06;196.43;;;87.37;;
4806;SDS011;2417;52.482;13.432;2022-11-25T01:19:34;137.07;;;59.27;;
4806;SDS011;2417;52.482;13.432;2022-11-25T01:22:05;150.60;;;65.57;;
4806;SDS011;2417;52.482;13.432;2022-11-25T01:24:33;141.57;;;60.43;;
4806;SDS011;2417;52.482;13.432;2022-11-25T01:27:03;121.47;;;51.60;;
4806;SDS011;2417;52.482;13.432;2022-11-25T01:29:31;161.97;;;70.37;;
4806;SDS011;2417;52.482;13.432;2022-11-25T01:31:59;86.10;;;39.23;;
4806;SDS011;2417;52.482;13.432;2022-11-25T01:34:27;77.53;;;35.60;;
4806;SDS011;2417;52.482;13.432;2022-11-25T01:36:57;91.40;;;39.87;;
4806;SDS011;2417;52.482;13.432;2022-11-25T01:39:25;129.17;;;55.33;;
4806;SDS011;2417;52.482;13.432;2022-11-25T01:41:58;87.07;;;38.50;;
4806;SDS011;2417;52.482;13.432;2022-11-25T01:44:28;81.83;;;36.07;;
4806;SDS011;2417;52.482;13.432;2022-11-25T01:47:01;100.37;;;45.30;;
4806;SDS011;2417;52.482;13.432;2022-11-25T01:49:31;179.93;;;82.70;;
4806;SDS011;2417;52.482;13.432;2022-11-25T01:52:02;76.60;;;34.80;;
4806;SDS011;2417;52.482;13.432;2022-11-25T01:54:35;158.77;;;68.40;;
4806;SDS011;2417;52.482;13.432;2022-11-25T01:57:05;233.80;;;117.63;;
4806;SDS011;2417;52.482;13.432;2022-11-25T01:59:39;80.77;;;35.97;;
4806;SDS011;2417;52.482;13.432;2022-11-25T02:02:08;133.20;;;61.47;;
4806;SDS011;2417;52.482;13.432;2022-11-25T02:04:36;92.93;;;41.20;;
4806;SDS011;2417;52.482;13.432;2022-11-25T02:07:07;95.33;;;41.30;;
4806;SDS011;2417;52.482;13.432;2022-11-25T02:09:36;79.23;;;38.53;;
4806;SDS011;2417;52.482;13.432;2022-11-25T02:12:05;145.47;;;66.60;;
4806;SDS011;2417;52.482;13.432;2022-11-25T02:14:33;88.23;;;38.73;;
4806;SDS011;2417;52.482;13.432;2022-11-25T02:17:02;98.67;;;45.20;;
4806;SDS011;2417;52.482;13.432;2022-11-25T02:19:36;85.43;;;37.57;;
4806;SDS011;2417;52.482;13.432;2022-11-25T02:22:06;84.20;;;39.40;;
4806;SDS011;2417;52.482;13.432;2022-11-25T02:24:39;73.80;;;34.53;;
4806;SDS011;2417;52.482;13.432;2022-11-25T02:27:12;77.57;;;34.60;;
4806;SDS011;2417;52.482;13.432;2022-11-25T02:29:41;88.00;;;38.60;;
4806;SDS011;2417;52.482;13.432;2022-11-25T02:32:09;78.97;;;34.37;;
4806;SDS011;2417;52.482;13.432;2022-11-25T02:34:44;84.47;;;35.80;;
4806;SDS011;2417;52.482;13.432;2022-11-25T02:37:13;85.97;;;36.63;;
4806;SDS011;2417;52.482;13.432;2022-11-25T02:39:42;88.20;;;36.13;;
4806;SDS011;2417;52.482;13.432;2022-11-25T02:42:12;87.67;;;36.57;;
4806;SDS011;2417;52.482;13.432;2022-11-25T02:44:44;112.73;;;49.60;;
4806;SDS011;2417;52.482;13.432;2022-11-25T02:47:12;90.47;;;35.40;;
4806;SDS011;2417;52.482;13.432;2022-11-25T02:49:39;102.53;;;44.17;;
4806;SDS011;2417;52.482;13.432;2022-11-25T02:52:08;100.70;;;41.87;;
4806;SDS011;2417;52.482;13.432;2022-11-25T02:54:36;84.57;;;36.23;;
4806;SDS011;2417;52.482;13.432;2022-11-25T02:57:04;124.00;;;53.00;;
4806;SDS011;2417;52.482;13.432;2022-11-25T02:59:35;109.83;;;43.93;;
4806;SDS011;2417;52.482;13.432;2022-11-25T03:02:03;99.10;;;40.33;;
4806;SDS011;2417;52.482;13.432;2022-11-25T03:04:31;88.77;;;36.70;;
4806;SDS011;2417;52.482;13.432;2022-11-25T03:07:00;141.73;;;61.53;;
4806;SDS011;2417;52.482;13.432;2022-11-25T03:09:28;114.57;;;48.57;;
4806;SDS011;2417;52.482;13.432;2022-11-25T03:11:56;99.10;;;36.10;;
4806;SDS011;2417;52.482;13.432;2022-11-25T03:14:43;120.23;;;51.10;;
4806;SDS011;2417;52.482;13.432;2022-11-25T03:17:10;184.43;;;81.90;;
4806;SDS011;2417;52.482;13.432;2022-11-25T03:19:38;115.87;;;45.70;;
4806;SDS011;2417;52.482;13.432;2022-11-25T03:22:06;182.40;;;76.47;;
4806;SDS011;2417;52.482;13.432;2022-11-25T03:24:34;152.57;;;63.33;;
4806;SDS011;2417;52.482;13.432;2022-11-25T03:27:02;123.73;;;50.23;;
4806;SDS011;2417;52.482;13.432;2022-11-25T03:29:30;169.73;;;72.73;;
4806;SDS011;2417;52.482;13.432;2022-11-25T03:32:00;168.00;;;75.53;;
4806;SDS011;2417;52.482;13.432;2022-11-25T03:34:35;178.77;;;81.37;;
4806;SDS011;2417;52.482;13.432;2022-11-25T03:37:03;96.90;;;40.50;;
4806;SDS011;2417;52.482;13.432;2022-11-25T03:39:32;182.00;;;79.43;;
4806;SDS011;2417;52.482;13.432;2022-11-25T03:41:59;87.60;;;40.43;;
4806;SDS011;2417;52.482;13.432;2022-11-25T03:44:27;141.80;;;61.30;;
4806;SDS011;2417;52.482;13.432;2022-11-25T03:46:55;79.83;;;33.97;;
4806;SDS011;2417;52.482;13.432;2022-11-25T03:49:24;106.73;;;45.57;;
4806;SDS011;2417;52.482;13.432;2022-11-25T03:51:53;91.13;;;35.80;;
4806;SDS011;2417;52.482;13.432;2022-11-25T03:54:21;89.63;;;37.10;;
4806;SDS011;2417;52.482;13.432;2022-11-25T03:57:12;177.17;;;82.37;;
4806;SDS011;2417;52.482;13.432;2022-11-25T03:59:40;100.80;;;40.80;;
4806;SDS011;2417;52.482;13.432;2022-11-25T04:02:07;95.63;;;41.47;;
4806;SDS011;2417;52.482;13.432;2022-11-25T04:04:37;92.10;;;36.90;;
4806;SDS011;2417;52.482;13.432;2022-11-25T04:07:06;86.13;;;36.87;;
4806;SDS011;2417;52.482;13.432;2022-11-25T04:09:34;82.83;;;35.43;;
4806;SDS011;2417;52.482;13.432;2022-11-25T04:12:04;117.83;;;50.43;;
4806;SDS011;2417;52.482;13.432;2022-11-25T04:14:54;83.60;;;36.60;;
4806;SDS011;2417;52.482;13.432;2022-11-25T04:17:22;91.50;;;36.77;;
4806;SDS011;2417;52.482;13.432;2022-11-25T04:19:51;96.73;;;41.10;;
4806;SDS011;2417;52.482;13.432;2022-11-25T04:22:19;98.60;;;40.80;;
4806;SDS011;2417;52.482;13.432;2022-11-25T04:24:48;117.17;;;46.70;;
4806;SDS011;2417;52.482;13.432;2022-11-25T04:27:21;133.60;;;55.33;;
4806;SDS011;2417;52.482;13.432;2022-11-25T04:29:50;80.27;;;37.40;;
4806;SDS011;2417;52.482;13.432;2022-11-25T04:32:19;100.07;;;44.13;;
4806;SDS011;2417;52.482;13.432;2022-11-25T04:34:47;77.33;;;34.33;;
4806;SDS011;2417;52.482;13.432;2022-11-25T04:37:18;122.37;;;49.93;;
4806;SDS011;2417;52.482;13.432;2022-11-25T04:39:46;119.10;;;54.30;;
4806;SDS011;2417;52.482;13.432;2022-11-25T04:42:16;72.20;;;33.20;;
4806;SDS011;2417;52.482;13.432;2022-11-25T04:45:04;104.23;;;45.37;;
4806;SDS011;2417;52.482;13.432;2022-11-25T04:47:50;122.20;;;55.07;;
4806;SDS011;2417;52.482;13.432;2022-11-25T04:50:20;84.17;;;39.77;;
4806;SDS011;2417;52.482;13.432;2022-11-25T04:53:03;81.10;;;36.63;;
4806;SDS011;2417;52.482;13.432;2022-11-25T04:55:31;74.53;;;35.77;;
4806;SDS011;2417;52.482;13.432;2022-11-25T04:58:03;109.43;;;53.10;;
4806;SDS011;2417;52.482;13.432;2022-11-25T05:00:33;87.27;;;40.67;;
4806;SDS011;2417;52.482;13.432;2022-11-25T05:03:01;66.33;;;32.83;;
4806;SDS011;2417;52.482;13.432;2022-11-25T05:05:30;61.67;;;29.87;;
4806;SDS011;2417;52.482;13.432;2022-11-25T05:07:58;62.70;;;29.47;;
4806;SDS011;2417;52.482;13.432;2022-11-25T05:10:28;56.10;;;27.80;;
4806;SDS011;2417;52.482;13.432;2022-11-25T05:12:56;74.20;;;34.00;;
4806;SDS011;2417;52.482;13.432;2022-11-25T05:15:24;81.80;;;39.53;;
4806;SDS011;2417;52.482;13.432;2022-11-25T05:17:52;81.07;;;36.57;;
4806;SDS011;2417;52.482;13.432;2022-11-25T05:20:36;63.50;;;30.03;;
4806;SDS011;2417;52.482;13.432;2022-11-25T05:23:04;68.03;;;30.60;;
4806;SDS011;2417;52.482;13.432;2022-11-25T05:25:33;70.87;;;31.00;;
4806;SDS011;2417;52.482;13.432;2022-11-25T05:28:24;75.80;;;32.40;;
4806;SDS011;2417;52.482;13.432;2022-11-25T05:30:52;125.03;;;62.70;;
4806;SDS011;2417;52.482;13.432;2022-11-25T05:33:20;79.43;;;32.80;;
4806;SDS011;2417;52.482;13.432;2022-11-25T05:35:55;103.83;;;45.20;;
4806;SDS011;2417;52.482;13.432;2022-11-25T05:38:27;85.23;;;36.37;;
4806;SDS011;2417;52.482;13.432;2022-11-25T05:41:00;85.37;;;33.37;;
4806;SDS011;2417;52.482;13.432;2022-11-25T05:43:28;82.23;;;38.03;;
4806;SDS011;2417;52.482;13.432;2022-11-25T05:45:58;66.63;;;31.13;;
4806;SDS011;2417;52.482;13.432;2022-11-25T05:48:26;65.27;;;32.80;;
4806;SDS011;2417;52.482;13.432;2022-11-25T05:50:54;77.23;;;36.93;;
4806;SDS011;2417;52.482;13.432;2022-11-25T05:53:27;73.93;;;28.40;;
4806;SDS011;2417;52.482;13.432;2022-11-25T05:55:55;67.33;;;31.70;;
4806;SDS011;2417;52.482;13.432;2022-11-25T05:58:47;106.60;;;50.57;;
4806;SDS011;2417;52.482;13.432;2022-11-25T06:01:15;63.60;;;29.90;;
4806;SDS011;2417;52.482;13.432;2022-11-25T06:03:44;60.10;;;30.83;;
4806;SDS011;2417;52.482;13.432;2022-11-25T06:06:14;57.37;;;29.17;;
4806;SDS011;2417;52.482;13.432;2022-11-25T06:08:42;64.83;;;31.50;;
4806;SDS011;2417;52.482;13.432;2022-11-25T06:11:11;67.27;;;31.47;;
4806;SDS011;2417;52.482;13.432;2022-11-25T06:13:39;62.27;;;30.17;;
4806;SDS011;2417;52.482;13.432;2022-11-25T06:16:10;76.20;;;36.93;;
4806;SDS011;2417;52.482;13.432;2022-11-25T06:18:39;60.90;;;29.67;;
4806;SDS011;2417;52.482;13.432;2022-11-25T06:21:08;65.43;;;30.70;;
4806;SDS011;2417;52.482;13.432;2022-11-25T06:23:36;72.70;;;31.60;;
4806;SDS011;2417;52.482;13.432;2022-11-25T06:26:05;68.77;;;30.20;;
4806;SDS011;2417;52.482;13.432;2022-11-25T06:28:34;70.57;;;31.37;;
4806;SDS011;2417;52.482;13.432;2022-11-25T06:31:06;78.13;;;32.83;;
4806;SDS011;2417;52.482;13.432;2022-11-25T06:33:41;62.03;;;30.00;;
4806;SDS011;2417;52.482;13.432;2022-11-25T06:36:09;73.67;;;33.80;;
4806;SDS011;2417;52.482;13.432;2022-11-25T06:38:42;74.13;;;31.33;;
4806;SDS011;2417;52.482;13.432;2022-11-25T06:41:10;72.37;;;32.30;;
4806;SDS011;2417;52.482;13.432;2022-11-25T06:43:38;73.30;;;33.40;;
4806;SDS011;2417;52.482;13.432;2022-11-25T06:46:07;87.53;;;34.57;;
4806;SDS011;2417;52.482;13.432;2022-11-25T06:48:35;87.43;;;34.67;;
4806;SDS011;2417;52.482;13.432;2022-11-25T06:51:05;88.93;;;37.17;;
4806;SDS011;2417;52.482;13.432;2022-11-25T06:53:33;99.50;;;42.50;;
4806;SDS011;2417;52.482;13.432;2022-11-25T06:56:02;97.50;;;40.23;;
4806;SDS011;2417;52.482;13.432;2022-11-25T06:58:30;87.00;;;37.70;;
4806;SDS011;2417;52.482;13.432;2022-11-25T07:01:03;94.87;;;39.57;;
4806;SDS011;2417;52.482;13.432;2022-11-25T07:03:31;89.07;;;38.47;;
4806;SDS011;2417;52.482;13.432;2022-11-25T07:05:59;102.40;;;44.20;;
4806;SDS011;2417;52.482;13.432;2022-11-25T07:08:29;102.03;;;40.20;;
4806;SDS011;2417;52.482;13.432;2022-11-25T07:11:03;115.63;;;41.80;;
4806;SDS011;2417;52.482;13.432;2022-11-25T07:13:31;101.20;;;40.50;;
4806;SDS011;2417;52.482;13.432;2022-11-25T07:16:00;119.33;;;42.47;;
4806;SDS011;2417;52.482;13.432;2022-11-25T07:18:29;123.57;;;47.40;;
4806;SDS011;2417;52.482;13.432;2022-11-25T07:21:02;162.67;;;67.43;;
4806;SDS011;2417;52.482;13.432;2022-11-25T07:23:31;128.37;;;45.40;;
4806;SDS011;2417;52.482;13.432;2022-11-25T07:26:03;114.50;;;44.50;;
4806;SDS011;2417;52.482;13.432;2022-11-25T07:28:31;112.67;;;41.90;;
4806;SDS011;2417;52.482;13.432;2022-11-25T07:31:05;110.73;;;45.27;;
4806;SDS011;2417;52.482;13.432;2022-11-25T07:33:49;102.00;;;41.33;;
4806;SDS011;2417;52.482;13.432;2022-11-25T07:36:17;100.87;;;37.87;;
4806;SDS011;2417;52.482;13.432;2022-11-25T07:38:47;92.80;;;37.97;;
4806;SDS011;2417;52.482;13.432;2022-11-25T07:41:15;94.80;;;37.00;;
4806;SDS011;2417;52.482;13.432;2022-11-25T07:43:44;97.63;;;38.10;;
4806;SDS011;2417;52.482;13.432;2022-11-25T07:46:14;116.17;;;39.73;;
4806;SDS011;2417;52.482;13.432;2022-11-25T07:48:51;170.87;;;40.70;;
4806;SDS011;2417;52.482;13.432;2022-11-25T07:51:19;218.73;;;39.50;;
4806;SDS011;2417;52.482;13.432;2022-11-25T07:53:53;302.73;;;41.30;;
4806;SDS011;2417;52.482;13.432;2022-11-25T07:56:22;195.67;;;41.97;;
4806;SDS011;2417;52.482;13.432;2022-11-25T07:58:50;267.87;;;42.50;;
4806;SDS011;2417;52.482;13.432;2022-11-25T08:01:18;195.33;;;42.17;;
4806;SDS011;2417;52.482;13.432;2022-11-25T08:03:47;240.87;;;44.53;;
4806;SDS011;2417;52.482;13.432;2022-11-25T08:06:16;230.27;;;43.10;;
4806;SDS011;2417;52.482;13.432;2022-11-25T08:08:44;251.67;;;44.97;;
4806;SDS011;2417;52.482;13.432;2022-11-25T08:11:14;245.53;;;47.33;;
4806;SDS011;2417;52.482;13.432;2022-11-25T08:13:42;156.47;;;44.70;;
4806;SDS011;2417;52.482;13.432;2022-11-25T08:16:11;299.43;;;46.63;;
4806;SDS011;2417;52.482;13.432;2022-11-25T08:18:40;238.83;;;43.97;;
4806;SDS011;2417;52.482;13.432;2022-11-25T08:21:09;198.80;;;43.17;;
4806;SDS011;2417;52.482;13.432;2022-11-25T08:23:37;250.37;;;41.20;;
4806;SDS011;2417;52.482;13.432;2022-11-25T08:26:06;180.57;;;39.50;;
4806;SDS011;2417;52.482;13.432;2022-11-25T08:28:36;181.53;;;40.30;;
4806;SDS011;2417;52.482;13.432;2022-11-25T08:31:05;107.53;;;40.77;;
4806;SDS011;2417;52.482;13.432;2022-11-25T08:33:33;155.97;;;39.40;;
4806;SDS011;2417;52.482;13.432;2022-11-25T08:36:01;144.77;;;39.37;;
4806;SDS011;2417;52.482;13.432;2022-11-25T08:38:29;136.63;;;38.77;;
4806;SDS011;2417;52.482;13.432;2022-11-25T08:40:57;169.07;;;38.33;;
4806;SDS011;2417;52.482;13.432;2022-11-25T08:43:25;166.20;;;36.87;;
4806;SDS011;2417;52.482;13.432;2022-11-25T08:45:56;131.47;;;38.27;;
4806;SDS011;2417;52.482;13.432;2022-11-25T08:48:24;204.77;;;39.43;;
4806;SDS011;2417;52.482;13.432;2022-11-25T08:50:52;130.63;;;38.20;;
4806;SDS011;2417;52.482;13.432;2022-11-25T08:53:20;90.73;;;35.93;;
4806;SDS011;2417;52.482;13.432;2022-11-25T08:55:48;106.87;;;38.57;;
4806;SDS011;2417;52.482;13.432;2022-11-25T08:58:16;112.27;;;38.97;;
4806;SDS011;2417;52.482;13.432;2022-11-25T09:00:44;128.13;;;36.73;;
4806;SDS011;2417;52.482;13.432;2022-11-25T09:03:16;106.03;;;35.93;;
4806;SDS011;2417;52.482;13.432;2022-11-25T09:05:44;104.70;;;36.57;;
4806;SDS011;2417;52.482;13.432;2022-11-25T09:08:11;122.80;;;32.00;;
4806;SDS011;2417;52.482;13.432;2022-11-25T09:10:41;101.73;;;32.27;;
4806;SDS011;2417;52.482;13.432;2022-11-25T09:13:09;118.43;;;29.70;;
4806;SDS011;2417;52.482;13.432;2022-11-25T09:15:37;143.67;;;31.90;;
4806;SDS011;2417;52.482;13.432;2022-11-25T09:18:07;107.17;;;32.03;;
4806;SDS011;2417;52.482;13.432;2022-11-25T09:20:37;112.77;;;30.77;;
4806;SDS011;2417;52.482;13.432;2022-11-25T09:23:06;114.83;;;32.03;;
4806;SDS011;2417;52.482;13.432;2022-11-25T09:25:34;114.97;;;32.97;;
4806;SDS011;2417;52.482;13.432;2022-11-25T09:28:02;182.10;;;33.43;;
4806;SDS011;2417;52.482;13.432;2022-11-25T09:30:30;94.63;;;32.80;;
4806;SDS011;2417;52.482;13.432;2022-11-25T09:32:58;116.57;;;32.03;;
4806;SDS011;2417;52.482;13.432;2022-11-25T09:35:26;69.47;;;28.80;;
4806;SDS011;2417;52.482;13.432;2022-11-25T09:37:55;113.50;;;31.43;;
4806;SDS011;2417;52.482;13.432;2022-11-25T09:40:26;102.57;;;30.40;;
4806;SDS011;2417;52.482;13.432;2022-11-25T09:42:57;82.20;;;28.60;;
4806;SDS011;2417;52.482;13.432;2022-11-25T09:45:46;70.50;;;30.17;;
4806;SDS011;2417;52.482;13.432;2022-11-25T09:48:47;66.03;;;29.90;;
4806;SDS011;2417;52.482;13.432;2022-11-25T09:51:18;72.27;;;29.60;;
4806;SDS011;2417;52.482;13.432;2022-11-25T09:53:49;64.23;;;27.17;;
4806;SDS011;2417;52.482;13.432;2022-11-25T09:56:20;54.70;;;27.57;;
4806;SDS011;2417;52.482;13.432;2022-11-25T09:58:52;73.93;;;29.47;;
4806;SDS011;2417;52.482;13.432;2022-11-25T10:01:23;76.57;;;29.20;;
4806;SDS011;2417;52.482;13.432;2022-11-25T10:03:52;70.23;;;29.67;;
4806;SDS011;2417;52.482;13.432;2022-11-25T10:06:23;70.80;;;29.10;;
4806;SDS011;2417;52.482;13.432;2022-11-25T10:08:55;66.03;;;28.30;;
4806;SDS011;2417;52.482;13.432;2022-11-25T10:11:26;68.57;;;31.60;;
4806;SDS011;2417;52.482;13.432;2022-11-25T10:13:57;95.67;;;32.43;;
4806;SDS011;2417;52.482;13.432;2022-11-25T10:19:20;80.33;;;30.60;;
4806;SDS011;2417;52.482;13.432;2022-11-25T10:21:52;61.70;;;30.60;;
4806;SDS011;2417;52.482;13.432;2022-11-25T10:24:22;66.67;;;31.80;;
4806;SDS011;2417;52.482;13.432;2022-11-25T10:26:52;65.80;;;29.17;;
4806;SDS011;2417;52.482;13.432;2022-11-25T10:29:22;61.77;;;30.60;;
4806;SDS011;2417;52.482;13.432;2022-11-25T10:31:51;72.03;;;30.37;;
4806;SDS011;2417;52.482;13.432;2022-11-25T10:34:23;72.00;;;29.00;;
4806;SDS011;2417;52.482;13.432;2022-11-25T10:36:54;53.90;;;26.80;;
4806;SDS011;2417;52.482;13.432;2022-11-25T10:39:32;63.47;;;28.67;;
4806;SDS011;2417;52.482;13.432;2022-11-25T10:42:02;57.93;;;29.07;;
4806;SDS011;2417;52.482;13.432;2022-11-25T10:44:33;51.23;;;27.97;;
4806;SDS011;2417;52.482;13.432;2022-11-25T10:47:11;59.60;;;29.23;;
4806;SDS011;2417;52.482;13.432;2022-11-25T10:49:45;64.20;;;31.03;;
4806;SDS011;2417;52.482;13.432;2022-11-25T10:52:19;59.00;;;30.20;;
4806;SDS011;2417;52.482;13.432;2022-11-25T10:54:55;60.13;;;29.60;;
4806;SDS011;2417;52.482;13.432;2022-11-25T10:57:26;57.83;;;31.97;;
4806;SDS011;2417;52.482;13.432;2022-11-25T10:59:55;57.23;;;30.07;;
4806;SDS011;2417;52.482;13.432;2022-11-25T11:02:23;63.90;;;31.60;;
4806;SDS011;2417;52.482;13.432;2022-11-25T11:04:53;63.73;;;31.23;;
4806;SDS011;2417;52.482;13.432;2022-11-25T11:07:22;66.20;;;31.27;;
4806;SDS011;2417;52.482;13.432;2022-11-25T11:09:49;55.17;;;28.80;;
4806;SDS011;2417;52.482;13.432;2022-11-25T11:12:20;61.10;;;28.77;;
4806;SDS011;2417;52.482;13.432;2022-11-25T11:14:49;53.77;;;29.67;;
4806;SDS011;2417;52.482;13.432;2022-11-25T11:17:23;56.20;;;29.70;;
4806;SDS011;2417;52.482;13.432;2022-11-25T11:20:03;54.00;;;27.97;;
4806;SDS011;2417;52.482;13.432;2022-11-25T11:22:43;51.30;;;28.00;;
4806;SDS011;2417;52.482;13.432;2022-11-25T11:25:20;57.43;;;29.87;;
4806;SDS011;2417;52.482;13.432;2022-11-25T11:27:50;57.33;;;29.30;;
4806;SDS011;2417;52.482;13.432;2022-11-25T11:30:19;54.23;;;27.87;;
4806;SDS011;2417;52.482;13.432;2022-11-25T11:32:53;52.93;;;28.23;;
4806;SDS011;2417;52.482;13.432;2022-11-25T11:35:22;56.60;;;30.33;;
4806;SDS011;2417;52.482;13.432;2022-11-25T11:37:52;60.40;;;29.47;;
4806;SDS011;2417;52.482;13.432;2022-11-25T11:40:22;56.67;;;28.20;;
4806;SDS011;2417;52.482;13.432;2022-11-25T11:42:56;55.87;;;28.53;;
4806;SDS011;2417;52.482;13.432;2022-11-25T11:45:32;57.43;;;29.83;;
4806;SDS011;2417;52.482;13.432;2022-11-25T11:48:07;52.33;;;28.43;;
4806;SDS011;2417;52.482;13.432;2022-11-25T11:50:37;57.20;;;30.10;;
4806;SDS011;2417;52.482;13.432;2022-11-25T11:53:09;62.07;;;29.97;;
4806;SDS011;2417;52.482;13.432;2022-11-25T11:55:42;58.93;;;30.37;;
4806;SDS011;2417;52.482;13.432;2022-11-25T11:58:38;57.63;;;29.43;;
4806;SDS011;2417;52.482;13.432;2022-11-25T12:01:17;50.57;;;28.73;;
4806;SDS011;2417;52.482;13.432;2022-11-25T12:03:50;51.57;;;27.87;;
4806;SDS011;2417;52.482;13.432;2022-11-25T12:06:22;52.17;;;27.40;;
4806;SDS011;2417;52.482;13.432;2022-11-25T12:08:51;63.57;;;28.27;;
4806;SDS011;2417;52.482;13.432;2022-11-25T12:11:22;55.47;;;27.20;;
4806;SDS011;2417;52.482;13.432;2022-11-25T12:13:54;53.77;;;28.30;;
4806;SDS011;2417;52.482;13.432;2022-11-25T12:16:29;50.83;;;27.57;;
4806;SDS011;2417;52.482;13.432;2022-11-25T12:19:00;52.20;;;27.43;;
4806;SDS011;2417;52.482;13.432;2022-11-25T12:21:37;50.37;;;25.47;;
4806;SDS011;2417;52.482;13.432;2022-11-25T12:24:09;48.37;;;26.17;;
4806;SDS011;2417;52.482;13.432;2022-11-25T12:26:42;49.13;;;26.57;;
4806;SDS011;2417;52.482;13.432;2022-11-25T12:29:14;49.63;;;26.90;;
4806;SDS011;2417;52.482;13.432;2022-11-25T12:31:45;55.73;;;26.90;;
4806;SDS011;2417;52.482;13.432;2022-11-25T12:34:16;54.07;;;28.07;;
4806;SDS011;2417;52.482;13.432;2022-11-25T12:36:47;55.53;;;28.73;;
4806;SDS011;2417;52.482;13.432;2022-11-25T12:39:18;58.13;;;28.87;;
4806;SDS011;2417;52.482;13.432;2022-11-25T12:41:49;55.83;;;29.97;;
4806;SDS011;2417;52.482;13.432;2022-11-25T12:44:20;59.57;;;29.50;;
4806;SDS011;2417;52.482;13.432;2022-11-25T12:46:49;60.23;;;29.40;;
4806;SDS011;2417;52.482;13.432;2022-11-25T12:49:19;49.50;;;27.20;;
4806;SDS011;2417;52.482;13.432;2022-11-25T12:51:55;57.63;;;29.33;;
4806;SDS011;2417;52.482;13.432;2022-11-25T12:54:33;63.93;;;32.23;;
4806;SDS011;2417;52.482;13.432;2022-11-25T12:59:55;62.93;;;31.10;;
4806;SDS011;2417;52.482;13.432;2022-11-25T13:03:03;64.00;;;31.47;;
4806;SDS011;2417;52.482;13.432;2022-11-25T13:08:26;62.97;;;30.47;;
4806;SDS011;2417;52.482;13.432;2022-11-25T13:13:46;62.53;;;29.37;;
4806;SDS011;2417;52.482;13.432;2022-11-25T13:16:18;55.43;;;29.00;;
4806;SDS011;2417;52.482;13.432;2022-11-25T13:18:47;60.90;;;27.90;;
4806;SDS011;2417;52.482;13.432;2022-11-25T13:21:15;63.87;;;30.10;;
4806;SDS011;2417;52.482;13.432;2022-11-25T13:23:44;66.07;;;29.97;;
4806;SDS011;2417;52.482;13.432;2022-11-25T13:31:54;70.83;;;30.73;;
4806;SDS011;2417;52.482;13.432;2022-11-25T13:34:26;63.67;;;31.33;;
4806;SDS011;2417;52.482;13.432;2022-11-25T13:36:54;73.23;;;32.13;;
4806;SDS011;2417;52.482;13.432;2022-11-25T13:39:30;103.07;;;32.43;;
4806;SDS011;2417;52.482;13.432;2022-11-25T13:41:59;78.93;;;32.70;;
4806;SDS011;2417;52.482;13.432;2022-11-25T13:44:29;90.03;;;29.13;;
4806;SDS011;2417;52.482;13.432;2022-11-25T13:47:12;91.53;;;29.20;;
4806;SDS011;2417;52.482;13.432;2022-11-25T13:49:50;88.30;;;28.70;;
4806;SDS011;2417;52.482;13.432;2022-11-25T13:52:30;70.70;;;29.73;;
4806;SDS011;2417;52.482;13.432;2022-11-25T13:54:59;74.67;;;30.50;;
4806;SDS011;2417;52.482;13.432;2022-11-25T13:57:28;89.57;;;32.50;;
4806;SDS011;2417;52.482;13.432;2022-11-25T13:59:57;84.37;;;31.20;;
4806;SDS011;2417;52.482;13.432;2022-11-25T14:02:34;88.60;;;32.40;;
4806;SDS011;2417;52.482;13.432;2022-11-25T14:05:06;96.23;;;31.60;;
4806;SDS011;2417;52.482;13.432;2022-11-25T14:07:39;85.53;;;30.83;;
4806;SDS011;2417;52.482;13.432;2022-11-25T14:10:18;92.67;;;30.73;;
4806;SDS011;2417;52.482;13.432;2022-11-25T14:12:55;91.23;;;31.37;;
4806;SDS011;2417;52.482;13.432;2022-11-25T14:15:34;97.20;;;29.93;;
4806;SDS011;2417;52.482;13.432;2022-11-25T14:18:19;116.23;;;30.67;;
4806;SDS011;2417;52.482;13.432;2022-11-25T14:21:09;94.53;;;29.90;;
4806;SDS011;2417;52.482;13.432;2022-11-25T14:26:26;103.07;;;31.83;;
4806;SDS011;2417;52.482;13.432;2022-11-25T14:29:16;93.13;;;32.20;;
4806;SDS011;2417;52.482;13.432;2022-11-25T14:31:46;87.80;;;32.70;;
4806;SDS011;2417;52.482;13.432;2022-11-25T14:34:20;102.67;;;34.20;;
4806;SDS011;2417;52.482;13.432;2022-11-25T14:36:49;117.70;;;45.63;;
4806;SDS011;2417;52.482;13.432;2022-11-25T14:39:20;109.27;;;34.13;;
4806;SDS011;2417;52.482;13.432;2022-11-25T14:41:51;122.93;;;39.00;;
4806;SDS011;2417;52.482;13.432;2022-11-25T14:44:22;150.17;;;31.30;;
4806;SDS011;2417;52.482;13.432;2022-11-25T14:46:51;103.20;;;35.70;;
4806;SDS011;2417;52.482;13.432;2022-11-25T14:49:20;82.20;;;34.07;;
4806;SDS011;2417;52.482;13.432;2022-11-25T14:52:08;87.20;;;31.97;;
4806;SDS011;2417;52.482;13.432;2022-11-25T14:54:39;99.83;;;32.80;;
4806;SDS011;2417;52.482;13.432;2022-11-25T14:57:07;116.57;;;34.30;;
4806;SDS011;2417;52.482;13.432;2022-11-25T14:59:35;89.07;;;33.77;;
4806;SDS011;2417;52.482;13.432;2022-11-25T15:02:20;101.07;;;32.97;;
4806;SDS011;2417;52.482;13.432;2022-11-25T15:04:51;128.17;;;34.87;;
4806;SDS011;2417;52.482;13.432;2022-11-25T15:07:19;92.90;;;37.00;;
4806;SDS011;2417;52.482;13.432;2022-11-25T15:09:56;113.77;;;35.00;;
4806;SDS011;2417;52.482;13.432;2022-11-25T15:12:25;99.77;;;34.70;;